createdAt,value
2019-02-15T00:00:47.924Z,17.57
2019-02-15T00:03:53.188Z,19.30
2019-02-15T00:06:58.394Z,18.67
2019-02-15T00:10:03.600Z,14.23
2019-02-15T00:13:13.549Z,13.70
2019-02-15T00:16:15.948Z,12.77
2019-02-15T00:19:33.129Z,13.13
2019-02-15T00:22:38.451Z,12.63
2019-02-15T00:25:43.604Z,11.23
2019-02-15T00:28:49.038Z,12.13
2019-02-15T00:31:54.212Z,12.30
2019-02-15T00:34:59.391Z,12.50
2019-02-15T00:38:04.611Z,13.87
2019-02-15T00:41:09.759Z,16.33
2019-02-15T00:44:14.940Z,13.20
2019-02-15T00:47:40.047Z,12.70
2019-02-15T00:51:00.818Z,14.70
2019-02-15T00:54:12.829Z,17.57
2019-02-15T00:57:39.780Z,14.30
2019-02-15T01:00:59.873Z,13.57
2019-02-15T01:04:20.612Z,12.83
2019-02-15T01:07:44.750Z,16.07
2019-02-15T01:10:58.907Z,17.50
2019-02-15T01:14:04.219Z,14.03
2019-02-15T01:17:10.081Z,14.53
2019-02-15T01:20:15.251Z,13.63
2019-02-15T01:23:20.404Z,14.70
2019-02-15T01:26:40.375Z,13.77
2019-02-15T01:29:57.482Z,14.13
2019-02-15T01:33:12.454Z,14.83
2019-02-15T01:36:42.711Z,14.83
2019-02-15T01:40:12.864Z,13.77
2019-02-15T01:43:40.127Z,15.70
2019-02-15T01:47:04.822Z,13.47
2019-02-15T01:50:09.930Z,11.33
2019-02-15T01:53:15.091Z,11.00
2019-02-15T01:56:20.251Z,10.17
2019-02-15T01:59:25.432Z,10.00
2019-02-15T02:02:30.619Z,9.63
2019-02-15T02:05:35.767Z,9.73
2019-02-15T02:08:40.943Z,9.53
2019-02-15T02:11:46.134Z,9.50
2019-02-15T02:14:51.340Z,9.33
2019-02-15T02:17:56.490Z,9.40
2019-02-15T02:21:01.659Z,8.03
2019-02-15T02:24:06.886Z,10.70
2019-02-15T02:27:12.120Z,9.87
2019-02-15T02:30:17.360Z,9.73
2019-02-15T02:33:22.581Z,10.13
2019-02-15T02:36:49.594Z,9.67
2019-02-15T02:39:54.731Z,9.93
2019-02-15T02:42:59.937Z,9.77
2019-02-15T02:46:05.153Z,10.00
2019-02-15T02:49:10.362Z,9.00
2019-02-15T02:52:15.563Z,9.43
2019-02-15T02:55:20.795Z,9.63
2019-02-15T02:58:25.934Z,10.10
2019-02-15T03:01:31.118Z,9.90
2019-02-15T03:04:36.365Z,10.40
2019-02-15T03:07:42.611Z,10.60
2019-02-15T03:10:47.743Z,10.17
2019-02-15T03:13:52.955Z,9.80
2019-02-15T03:16:58.117Z,8.37
2019-02-15T03:20:03.463Z,8.43
2019-02-15T03:23:08.615Z,10.07
2019-02-15T03:26:13.818Z,10.03
2019-02-15T03:29:19.016Z,8.73
2019-02-15T03:32:24.145Z,9.27
2019-02-15T03:35:29.344Z,9.63
2019-02-15T03:38:42.556Z,8.83
2019-02-15T03:41:47.813Z,10.07
2019-02-15T03:44:53.026Z,9.37
2019-02-15T03:47:58.161Z,9.63
2019-02-15T03:51:03.413Z,10.10
2019-02-15T03:54:08.592Z,10.80
2019-02-15T03:57:13.741Z,10.47
2019-02-15T04:00:18.886Z,9.47
2019-02-15T04:03:24.020Z,8.93
2019-02-15T04:06:30.312Z,9.40
2019-02-15T04:09:35.442Z,8.90
2019-02-15T04:12:40.859Z,9.63
2019-02-15T04:15:45.968Z,10.47
2019-02-15T04:18:51.222Z,10.60
2019-02-15T04:21:56.369Z,10.70
2019-02-15T04:25:01.484Z,10.30
2019-02-15T04:28:06.639Z,10.07
2019-02-15T04:31:11.794Z,9.47
2019-02-15T04:34:16.950Z,9.93
2019-02-15T04:37:22.091Z,9.93
2019-02-15T04:40:27.288Z,10.37
2019-02-15T04:43:32.454Z,10.57
2019-02-15T04:46:37.701Z,10.23
2019-02-15T04:49:42.891Z,9.20
2019-02-15T04:52:48.003Z,9.10
2019-02-15T04:55:53.193Z,8.73
2019-02-15T04:58:58.341Z,9.00
2019-02-15T05:02:03.466Z,10.07
2019-02-15T05:05:08.773Z,9.43
2019-02-15T05:08:14.065Z,9.13
2019-02-15T05:11:20.327Z,8.87
2019-02-15T05:14:25.496Z,11.00
2019-02-15T05:17:30.632Z,10.53
2019-02-15T05:20:35.816Z,12.47
2019-02-15T05:23:40.963Z,11.40
2019-02-15T05:26:46.131Z,11.03
2019-02-15T05:29:51.329Z,10.43
2019-02-15T05:32:56.469Z,11.37
2019-02-15T05:36:01.624Z,13.13
2019-02-15T05:39:08.973Z,11.33
2019-02-15T05:42:14.108Z,10.90
2019-02-15T05:45:19.250Z,10.73
2019-02-15T05:48:24.396Z,11.53
2019-02-15T05:51:29.560Z,10.43
2019-02-15T05:54:34.653Z,9.13
2019-02-15T05:57:39.851Z,9.57
2019-02-15T06:00:45.090Z,10.37
2019-02-15T06:03:50.342Z,10.63
2019-02-15T06:06:57.203Z,12.30
2019-02-15T06:10:02.363Z,12.80
2019-02-15T06:13:07.497Z,11.70
2019-02-15T06:16:12.747Z,12.27
2019-02-15T06:19:17.872Z,10.97
2019-02-15T06:22:23.119Z,12.73
2019-02-15T06:25:28.283Z,12.73
2019-02-15T06:28:34.546Z,11.50
2019-02-15T06:31:40.614Z,12.77
2019-02-15T06:34:45.766Z,12.60
2019-02-15T06:37:50.879Z,12.73
2019-02-15T06:40:56.058Z,14.37
2019-02-15T06:44:01.174Z,15.63
2019-02-15T06:47:06.376Z,14.87
2019-02-15T06:50:11.552Z,13.17
2019-02-15T06:53:16.747Z,12.40
2019-02-15T06:56:21.944Z,13.60
2019-02-15T06:59:55.162Z,14.53
2019-02-15T07:03:10.777Z,11.50
2019-02-15T07:06:15.881Z,13.33
2019-02-15T07:09:21.016Z,12.97
2019-02-15T07:12:26.121Z,12.13
2019-02-15T07:15:33.857Z,13.10
2019-02-15T07:18:38.204Z,13.23
2019-02-15T07:21:43.353Z,12.33
2019-02-15T07:24:48.499Z,12.63
2019-02-15T07:27:53.615Z,10.93
2019-02-15T07:30:58.804Z,10.87
2019-02-15T07:34:03.980Z,10.37
2019-02-15T07:37:09.160Z,12.53
2019-02-15T07:40:15.001Z,12.63
2019-02-15T07:43:20.210Z,14.27
2019-02-15T07:46:25.540Z,11.30
2019-02-15T07:49:30.714Z,12.63
2019-02-15T07:52:35.916Z,10.57
2019-02-15T07:55:41.120Z,11.63
2019-02-15T07:58:46.294Z,10.50
2019-02-15T08:01:51.505Z,10.30
2019-02-15T08:04:56.698Z,11.03
2019-02-15T08:08:01.909Z,11.97
2019-02-15T08:11:07.071Z,11.63
2019-02-15T08:14:14.845Z,11.83
2019-02-15T08:17:19.108Z,11.17
2019-02-15T08:20:24.208Z,10.77
2019-02-15T08:23:29.436Z,11.70
2019-02-15T08:26:34.562Z,10.53
2019-02-15T08:29:39.735Z,10.90
2019-02-15T08:32:44.835Z,10.53
2019-02-15T08:35:50.151Z,10.27
2019-02-15T08:38:55.262Z,11.30
2019-02-15T08:42:03.876Z,11.97
2019-02-15T08:45:08.922Z,11.13
2019-02-15T08:48:14.144Z,11.27
2019-02-15T08:51:19.295Z,11.93
2019-02-15T08:54:24.394Z,10.53
2019-02-15T08:57:29.560Z,12.73
2019-02-15T09:00:34.700Z,11.53
2019-02-15T09:03:39.817Z,11.30
2019-02-15T09:06:44.887Z,11.80
2019-02-15T09:09:50.181Z,10.97
2019-02-15T09:12:55.262Z,10.77
2019-02-15T09:16:09.681Z,10.97
2019-02-15T09:19:07.326Z,11.30
2019-02-15T09:22:12.509Z,14.27
2019-02-15T09:25:17.621Z,11.47
2019-02-15T09:28:30.480Z,12.03
2019-02-15T09:31:35.615Z,11.47
2019-02-15T09:34:40.795Z,12.20
2019-02-15T09:37:45.931Z,11.20
2019-02-15T09:40:51.159Z,11.53
2019-02-15T09:43:56.365Z,11.97
2019-02-15T09:47:01.532Z,12.03
2019-02-15T09:50:08.041Z,11.87
2019-02-15T09:53:14.059Z,12.63
2019-02-15T09:56:19.232Z,12.60
2019-02-15T09:59:24.420Z,13.23
2019-02-15T10:02:29.598Z,13.77
2019-02-15T10:05:34.676Z,13.60
2019-02-15T10:08:39.825Z,14.07
2019-02-15T10:11:44.947Z,13.00
2019-02-15T10:14:50.138Z,12.60
2019-02-15T10:17:58.147Z,13.07
2019-02-15T10:21:03.270Z,12.13
2019-02-15T10:24:09.515Z,11.90
2019-02-15T10:27:14.619Z,11.50
2019-02-15T10:30:19.785Z,15.10
2019-02-15T10:33:24.879Z,14.10
2019-02-15T10:36:30.058Z,11.50
2019-02-15T10:39:35.166Z,11.50
2019-02-15T10:42:40.383Z,10.77
2019-02-15T10:45:45.512Z,12.00
2019-02-15T10:48:50.715Z,11.13
2019-02-15T10:51:55.895Z,11.03
2019-02-15T10:55:01.000Z,10.23
2019-02-15T10:58:07.247Z,11.20
2019-02-15T11:01:12.514Z,11.53
2019-02-15T11:04:17.745Z,11.47
2019-02-15T11:07:22.974Z,11.13
2019-02-15T11:10:28.104Z,10.63
2019-02-15T11:13:33.690Z,11.10
2019-02-15T11:16:46.937Z,10.90
2019-02-15T11:19:45.684Z,10.40
2019-02-15T11:22:50.836Z,10.70
2019-02-15T11:25:55.995Z,10.57
2019-02-15T11:29:01.160Z,10.90
2019-02-15T11:32:06.431Z,11.23
2019-02-15T11:35:12.840Z,11.13
2019-02-15T11:38:17.971Z,10.50
2019-02-15T11:41:23.111Z,11.03
2019-02-15T11:44:28.391Z,10.70
2019-02-15T11:47:33.537Z,12.07
2019-02-15T11:50:38.676Z,10.73
2019-02-15T11:53:43.923Z,10.40
2019-02-15T11:56:49.069Z,10.40
2019-02-15T11:59:54.347Z,10.47
2019-02-15T12:02:59.521Z,10.90
2019-02-15T12:06:04.692Z,11.33
2019-02-15T12:09:09.827Z,11.20
2019-02-15T12:12:15.434Z,10.70
2019-02-15T12:15:20.684Z,10.70
2019-02-15T12:18:25.895Z,10.40
2019-02-15T12:21:30.973Z,11.27
2019-02-15T12:24:36.133Z,9.93
2019-02-15T12:27:41.259Z,10.40
2019-02-15T12:30:46.398Z,10.43
2019-02-15T12:33:51.593Z,10.10
2019-02-15T12:36:56.796Z,9.77
2019-02-15T12:40:01.951Z,9.57
2019-02-15T12:43:08.242Z,9.63
2019-02-15T12:46:13.448Z,9.03
2019-02-15T12:49:18.617Z,9.93
2019-02-15T12:52:23.783Z,9.23
2019-02-15T12:55:28.971Z,9.50
2019-02-15T12:58:34.212Z,9.23
2019-02-15T13:01:39.343Z,9.13
2019-02-15T13:04:44.484Z,8.87
2019-02-15T13:07:49.621Z,8.63
2019-02-15T13:10:54.900Z,8.83
2019-02-15T13:14:00.062Z,8.47
2019-02-15T13:17:05.167Z,9.20
2019-02-15T13:20:10.705Z,9.10
2019-02-15T13:23:15.939Z,8.30
2019-02-15T13:26:21.226Z,8.70
2019-02-15T13:29:26.372Z,8.53
2019-02-15T13:32:31.590Z,8.73
2019-02-15T13:35:36.719Z,8.63
2019-02-15T13:38:41.866Z,7.90
2019-02-15T13:41:47.035Z,8.17
2019-02-15T13:44:52.203Z,8.70
2019-02-15T13:47:57.432Z,8.37
2019-02-15T13:51:02.619Z,8.50
2019-02-15T13:54:07.729Z,8.57
2019-02-15T13:57:12.965Z,8.10
2019-02-15T14:00:18.145Z,8.67
2019-02-15T14:03:23.280Z,8.20
2019-02-15T14:06:28.427Z,8.37
2019-02-15T14:09:33.571Z,9.10
2019-02-15T14:12:38.772Z,8.67
2019-02-15T14:15:43.925Z,8.43
2019-02-15T14:18:49.053Z,8.80
2019-02-15T14:21:54.217Z,9.33
2019-02-15T14:24:59.532Z,8.87
2019-02-15T14:28:04.676Z,8.47
2019-02-15T14:31:09.822Z,9.43
2019-02-15T14:34:15.008Z,8.87
2019-02-15T14:37:20.251Z,6.87
2019-02-15T14:40:25.397Z,7.07
2019-02-15T14:43:30.540Z,6.43
2019-02-15T14:46:35.718Z,6.30
2019-02-15T14:49:40.829Z,6.60
2019-02-15T14:52:46.036Z,6.30
2019-02-15T14:55:51.196Z,6.87
2019-02-15T14:58:56.374Z,6.70
2019-02-15T15:02:01.606Z,6.23
2019-02-15T15:05:07.275Z,6.10
2019-02-15T15:08:12.433Z,6.40
2019-02-15T15:11:17.680Z,6.10
2019-02-15T15:14:22.939Z,6.53
2019-02-15T15:17:28.100Z,6.90
2019-02-15T15:20:33.276Z,7.03
2019-02-15T15:23:38.506Z,6.97
2019-02-15T15:26:43.615Z,6.90
2019-02-15T15:29:50.445Z,7.17
2019-02-15T15:32:55.711Z,6.50
2019-02-15T15:36:00.773Z,7.00
2019-02-15T15:39:06.553Z,6.90
2019-02-15T15:42:12.611Z,7.03
2019-02-15T15:45:17.889Z,6.30
2019-02-15T15:48:23.137Z,6.87
2019-02-15T15:51:28.316Z,6.20
2019-02-15T15:54:33.565Z,6.43
2019-02-15T15:57:38.707Z,6.93
2019-02-15T16:00:43.911Z,6.60
2019-02-15T16:03:49.216Z,6.63
2019-02-15T16:06:54.373Z,7.93
2019-02-15T16:09:59.514Z,9.00
2019-02-15T16:13:04.705Z,8.40
2019-02-15T16:16:09.941Z,7.93
2019-02-15T16:19:15.124Z,10.13
2019-02-15T16:22:20.475Z,9.47
2019-02-15T16:25:25.672Z,20.83
2019-02-15T16:28:31.534Z,9.00
2019-02-15T16:31:36.645Z,9.60
2019-02-15T16:34:41.790Z,10.67
2019-02-15T16:37:46.982Z,11.53
2019-02-15T16:40:52.261Z,11.73
2019-02-15T16:43:57.439Z,10.87
2019-02-15T16:47:02.590Z,10.90
2019-02-15T16:50:08.994Z,10.60
2019-02-15T16:53:14.207Z,11.13
2019-02-15T16:56:19.407Z,11.23
2019-02-15T16:59:24.534Z,12.57
2019-02-15T17:02:29.712Z,11.20
2019-02-15T17:05:34.923Z,10.17
2019-02-15T17:08:42.400Z,9.23
2019-02-15T17:11:47.520Z,9.30
2019-02-15T17:14:52.714Z,9.63
2019-02-15T17:17:57.858Z,10.40
2019-02-15T17:21:03.019Z,10.20
2019-02-15T17:24:08.225Z,9.07
2019-02-15T17:27:17.060Z,10.17
2019-02-15T17:30:22.265Z,10.87
2019-02-15T17:33:27.422Z,11.73
2019-02-15T17:36:32.615Z,11.63
2019-02-15T17:39:37.817Z,16.73
2019-02-15T17:42:43.001Z,17.47
2019-02-15T17:45:49.232Z,14.80
2019-02-15T17:49:00.600Z,16.53
2019-02-15T17:52:01.218Z,20.47
2019-02-15T17:55:06.484Z,17.50
2019-02-15T17:58:11.821Z,18.07
2019-02-15T18:01:16.969Z,15.37
2019-02-15T18:04:22.154Z,16.30
2019-02-15T18:07:27.267Z,23.73
2019-02-15T18:10:32.433Z,24.80
2019-02-15T18:13:37.550Z,26.17
2019-02-15T18:16:42.651Z,24.93
2019-02-15T18:19:47.785Z,24.30
2019-02-15T18:22:52.978Z,32.13
2019-02-15T18:25:58.157Z,20.87
2019-02-15T18:29:03.383Z,18.37
2019-02-15T18:32:08.520Z,20.63
2019-02-15T18:35:13.861Z,18.10
2019-02-15T18:38:19.009Z,21.40
2019-02-15T18:41:24.169Z,51.17
2019-02-15T18:44:29.364Z,29.07
2019-02-15T18:47:34.518Z,20.20
2019-02-15T18:50:39.855Z,20.80
2019-02-15T18:53:45.630Z,19.27
2019-02-15T18:56:51.136Z,17.53
2019-02-15T18:59:56.388Z,14.63
2019-02-15T19:03:01.535Z,15.73
2019-02-15T19:06:07.709Z,14.20
2019-02-15T19:09:12.843Z,12.63
2019-02-15T19:12:18.174Z,31.67
2019-02-15T19:15:25.775Z,36.20
2019-02-15T19:18:31.011Z,21.00
2019-02-15T19:21:37.388Z,16.60
2019-02-15T19:24:42.582Z,15.70
2019-02-15T19:27:47.847Z,16.43
2019-02-15T19:30:53.173Z,14.83
2019-02-15T19:33:58.419Z,13.60
2019-02-15T19:37:05.044Z,14.87
2019-02-15T19:40:11.500Z,14.20
2019-02-15T19:43:16.729Z,12.10
2019-02-15T19:46:21.905Z,12.97
2019-02-15T19:49:27.046Z,11.63
2019-02-15T19:52:32.239Z,14.10
2019-02-15T19:55:37.438Z,14.27
2019-02-15T19:58:43.839Z,14.67
2019-02-15T20:01:49.243Z,14.30
2019-02-15T20:04:54.450Z,14.53
2019-02-15T20:07:59.641Z,19.50
2019-02-15T20:11:04.886Z,20.33
2019-02-15T20:14:10.106Z,21.37
2019-02-15T20:17:15.333Z,19.13
2019-02-15T20:20:20.581Z,21.93
2019-02-15T20:23:26.044Z,25.00
2019-02-15T20:26:31.264Z,23.67
2019-02-15T20:29:36.490Z,23.53
2019-02-15T20:32:41.721Z,25.30
2019-02-15T20:35:47.073Z,24.93
2019-02-15T20:38:52.275Z,21.00
2019-02-15T20:41:57.464Z,22.30
2019-02-15T20:45:02.656Z,31.27
2019-02-15T20:48:12.183Z,26.17
2019-02-15T20:51:14.742Z,26.33
2019-02-15T20:54:20.882Z,33.77
2019-02-15T20:57:26.090Z,27.63
2019-02-15T21:00:31.306Z,26.70
2019-02-15T21:03:36.557Z,26.77
2019-02-15T21:06:41.734Z,25.00
2019-02-15T21:09:46.931Z,19.53
2019-02-15T21:12:52.318Z,27.70
2019-02-15T21:15:57.576Z,23.50
2019-02-15T21:19:02.740Z,23.13
2019-02-15T21:22:07.897Z,17.50
2019-02-15T21:25:13.146Z,18.87
2019-02-15T21:28:18.356Z,16.10
2019-02-15T21:31:23.540Z,14.93
2019-02-15T21:34:28.748Z,14.57
2019-02-15T21:37:33.922Z,14.20
2019-02-15T21:40:39.186Z,12.80
2019-02-15T21:43:44.315Z,15.53
2019-02-15T21:46:49.497Z,15.00
2019-02-15T21:49:54.752Z,20.57
2019-02-15T21:52:59.957Z,22.20
2019-02-15T21:56:05.152Z,30.23
2019-02-15T21:59:10.359Z,28.83
2019-02-15T22:02:15.575Z,25.80
2019-02-15T22:05:20.788Z,20.80
2019-02-15T22:08:25.931Z,22.10
2019-02-15T22:11:31.182Z,19.20
2019-02-15T22:14:36.305Z,19.90
2019-02-15T22:17:41.460Z,20.83
2019-02-15T22:20:46.686Z,21.70
2019-02-15T22:23:55.179Z,17.53
2019-02-15T22:27:02.058Z,19.67
2019-02-15T22:30:09.267Z,20.27
2019-02-15T22:33:14.468Z,21.03
2019-02-15T22:36:19.699Z,18.43
2019-02-15T22:39:24.845Z,14.90
2019-02-15T22:42:30.008Z,16.73
2019-02-15T22:45:35.293Z,15.83
2019-02-15T22:48:40.441Z,15.13
2019-02-15T22:51:45.619Z,14.47
2019-02-15T22:54:50.784Z,14.33
2019-02-15T22:57:55.924Z,15.37
2019-02-15T23:01:05.439Z,15.03
2019-02-15T23:04:10.716Z,17.53
2019-02-15T23:07:16.000Z,18.23
2019-02-15T23:10:21.177Z,17.13
2019-02-15T23:13:26.320Z,16.13
2019-02-15T23:16:31.493Z,20.53
2019-02-15T23:19:36.650Z,20.40
2019-02-15T23:22:41.822Z,18.90
2019-02-15T23:25:47.055Z,17.63
2019-02-15T23:28:52.205Z,18.57
2019-02-15T23:31:57.398Z,19.83
2019-02-15T23:35:03.657Z,17.93
2019-02-15T23:38:08.898Z,16.93
2019-02-15T23:41:14.069Z,17.03
2019-02-15T23:44:19.339Z,15.33
2019-02-15T23:47:24.755Z,14.77
2019-02-15T23:50:30.047Z,14.83
2019-02-15T23:53:35.196Z,12.83
2019-02-15T23:56:40.338Z,13.70
2019-02-15T23:59:45.521Z,13.10
